^^
Meteo Knjazevac Station Historical Data
Daily Summary for May 21, 2022 Units:  Both    English   Metric
Daily Weekly Monthly Yearly Custom
  High: Low: Average:
Temperature: 89.2 °F /  31.8 °C 41.7 °F /  5.4 °C 68 °F /  20 °C
Dew Point: 61.8 °F /  16.6 °C 35.9 °F /  2.2 °C 49.2 °F /  9.6 °C
Humidity: 81% 35% 55%
Wind Speed: 10mph /  16.1km/h - 3.2mph /  5.1km/h
Wind Gust: 17mph /  27.4km/h - -
Wind- - WSW
Pressure: 30.18 in /  1021.9 hPa 29.99 in /  1015.5 hPa -
Precipitation: 0.00 in /  0 mm    
Historical Graphs
 
 
Tabular Data for May 21, 2022
Time Temperature Dew Point Pressure Wind Wind Speed Wind Gust Humidity Rainfall Rate (Hourly) solar Conditions
00:00 49.6 °F /  9.8 °C 37.6 °F /  3.1 °C 30.18in /  1021.9hPa Calm   3mph /  4.8km/h 63% 0.00in /  0mm 0 W/m2
00:10 48.9 °F /  9.4 °C 37.3 °F /  2.9 °C 30.17in /  1021.6hPa West 2mph /  3.2km/h 3mph /  4.8km/h 64% 0.00in /  0mm 0 W/m2
00:20 47.8 °F /  8.8 °C 36.6 °F /  2.6 °C 30.17in /  1021.6hPa West 2mph /  3.2km/h 4mph /  6.4km/h 65% 0.00in /  0mm 0 W/m2
00:30 47.3 °F /  8.5 °C 36.9 °F /  2.7 °C 30.17in /  1021.6hPa West 3mph /  4.8km/h 5mph /  8km/h 67% 0.00in /  0mm 0 W/m2
00:40 47.3 °F /  8.5 °C 36.9 °F /  2.7 °C 30.17in /  1021.6hPa West 2mph /  3.2km/h 5mph /  8km/h 67% 0.00in /  0mm 0 W/m2
00:50 47.3 °F /  8.5 °C 36.9 °F /  2.7 °C 30.17in /  1021.6hPa West 5mph /  8km/h 6mph /  9.7km/h 67% 0.00in /  0mm 0 W/m2
01:00 47.3 °F /  8.5 °C 36.9 °F /  2.7 °C 30.17in /  1021.6hPa WNW 2mph /  3.2km/h 6mph /  9.7km/h 67% 0.00in /  0mm 0 W/m2
01:10 47.1 °F /  8.4 °C 36.7 °F /  2.6 °C 30.17in /  1021.6hPa NW 1mph /  1.6km/h 4mph /  6.4km/h 67% 0.00in /  0mm 0 W/m2
01:20 46.4 °F /  8 °C 36.4 °F /  2.4 °C 30.17in /  1021.6hPa West 2mph /  3.2km/h 3mph /  4.8km/h 68% 0.00in /  0mm 0 W/m2
01:30 45.7 °F /  7.6 °C 36.1 °F /  2.3 °C 30.16in /  1021.2hPa WSW 1mph /  1.6km/h 4mph /  6.4km/h 69% 0.00in /  0mm 0 W/m2
01:40 45 °F /  7.2 °C 36.5 °F /  2.5 °C 30.16in /  1021.2hPa West 2mph /  3.2km/h 4mph /  6.4km/h 72% 0.00in /  0mm 0 W/m2
01:50 45 °F /  7.2 °C 36.5 °F /  2.5 °C 30.16in /  1021.2hPa WNW 1mph /  1.6km/h 4mph /  6.4km/h 72% 0.00in /  0mm 0 W/m2
02:00 45 °F /  7.2 °C 36.5 °F /  2.5 °C 30.16in /  1021.2hPa West 3mph /  4.8km/h 4mph /  6.4km/h 72% 0.00in /  0mm 0 W/m2
02:10 44.8 °F /  7.1 °C 36.3 °F /  2.4 °C 30.16in /  1021.2hPa WNW 2mph /  3.2km/h 5mph /  8km/h 72% 0.00in /  0mm 0 W/m2
02:20 44.6 °F /  7 °C 36.5 °F /  2.5 °C 30.16in /  1021.2hPa NW 1mph /  1.6km/h 4mph /  6.4km/h 73% 0.00in /  0mm 0 W/m2
02:30 44.2 °F /  6.8 °C 36.1 °F /  2.3 °C 30.15in /  1020.9hPa WNW 1mph /  1.6km/h 4mph /  6.4km/h 73% 0.00in /  0mm 0 W/m2
02:40 43.7 °F /  6.5 °C 36 °F /  2.2 °C 30.15in /  1020.9hPa WSW 2mph /  3.2km/h 6mph /  9.7km/h 74% 0.00in /  0mm 0 W/m2
02:50 43.5 °F /  6.4 °C 36.1 °F /  2.3 °C 30.15in /  1020.9hPa WNW 3mph /  4.8km/h 6mph /  9.7km/h 75% 0.00in /  0mm 0 W/m2
03:00 43.7 °F /  6.5 °C 36 °F /  2.2 °C 30.15in /  1020.9hPa West 2mph /  3.2km/h 5mph /  8km/h 74% 0.00in /  0mm 0 W/m2
03:10 43.5 °F /  6.4 °C 36.1 °F /  2.3 °C 30.15in /  1020.9hPa West 3mph /  4.8km/h 5mph /  8km/h 75% 0.00in /  0mm 0 W/m2
03:20 43.3 °F /  6.3 °C 35.9 °F /  2.2 °C 30.15in /  1020.9hPa West 2mph /  3.2km/h 5mph /  8km/h 75% 0.00in /  0mm 0 W/m2
03:30 43.2 °F /  6.2 °C 36.4 °F /  2.4 °C 30.15in /  1020.9hPa West 1mph /  1.6km/h 4mph /  6.4km/h 77% 0.00in /  0mm 0 W/m2
03:40 43.2 °F /  6.2 °C 36.4 °F /  2.4 °C 30.14in /  1020.5hPa West 3mph /  4.8km/h 5mph /  8km/h 77% 0.00in /  0mm 0 W/m2
03:50 43 °F /  6.1 °C 36.3 °F /  2.4 °C 30.14in /  1020.5hPa West 1mph /  1.6km/h 5mph /  8km/h 77% 0.00in /  0mm 0 W/m2
04:00 42.8 °F /  6 °C 36.1 °F /  2.3 °C 30.14in /  1020.5hPa West 2mph /  3.2km/h 5mph /  8km/h 77% 0.00in /  0mm 0 W/m2
04:10 42.8 °F /  6 °C 36.4 °F /  2.4 °C 30.14in /  1020.5hPa WNW 2mph /  3.2km/h 5mph /  8km/h 78% 0.00in /  0mm 0 W/m2
04:20 42.6 °F /  5.9 °C 36.2 °F /  2.3 °C 30.14in /  1020.5hPa WNW 2mph /  3.2km/h 5mph /  8km/h 78% 0.00in /  0mm 0 W/m2
04:30 42.6 °F /  5.9 °C 36.2 °F /  2.3 °C 30.14in /  1020.5hPa WNW 1mph /  1.6km/h 4mph /  6.4km/h 78% 0.00in /  0mm 0 W/m2
04:40 42.4 °F /  5.8 °C 36.1 °F /  2.3 °C 30.14in /  1020.5hPa West 2mph /  3.2km/h 5mph /  8km/h 78% 0.00in /  0mm 0 W/m2
04:50 42.3 °F /  5.7 °C 36.2 °F /  2.3 °C 30.14in /  1020.5hPa West 2mph /  3.2km/h 5mph /  8km/h 79% 0.00in /  0mm 0 W/m2
05:00 42.3 °F /  5.7 °C 36.2 °F /  2.3 °C 30.14in /  1020.5hPa WNW 2mph /  3.2km/h 6mph /  9.7km/h 79% 0.00in /  0mm 3 W/m2
05:10 42.3 °F /  5.7 °C 36.2 °F /  2.3 °C 30.14in /  1020.5hPa WNW 1mph /  1.6km/h 4mph /  6.4km/h 79% 0.00in /  0mm 8 W/m2
05:20 42.1 °F /  5.6 °C 36.4 °F /  2.4 °C 30.14in /  1020.5hPa WNW 1mph /  1.6km/h 5mph /  8km/h 80% 0.00in /  0mm 14 W/m2
05:30 41.9 °F /  5.5 °C 36.2 °F /  2.3 °C 30.14in /  1020.5hPa WNW 1mph /  1.6km/h 3mph /  4.8km/h 80% 0.00in /  0mm 20 W/m2
05:40 41.7 °F /  5.4 °C 36 °F /  2.2 °C 30.14in /  1020.5hPa West 1mph /  1.6km/h 3mph /  4.8km/h 80% 0.00in /  0mm 29 W/m2
05:50 41.9 °F /  5.5 °C 36.2 °F /  2.3 °C 30.14in /  1020.5hPa WNW 2mph /  3.2km/h 3mph /  4.8km/h 80% 0.00in /  0mm 40 W/m2
06:00 42.1 °F /  5.6 °C 36.7 °F /  2.6 °C 30.14in /  1020.5hPa WNW 1mph /  1.6km/h 5mph /  8km/h 81% 0.00in /  0mm 44 W/m2
06:10 42.6 °F /  5.9 °C 37.2 °F /  2.9 °C 30.15in /  1020.9hPa WNW 1mph /  1.6km/h 3mph /  4.8km/h 81% 0.00in /  0mm 68 W/m2
06:20 43 °F /  6.1 °C 37.5 °F /  3.1 °C 30.15in /  1020.9hPa West 1mph /  1.6km/h 3mph /  4.8km/h 81% 0.00in /  0mm 114 W/m2
06:30 43.5 °F /  6.4 °C 38.1 °F /  3.4 °C 30.15in /  1020.9hPa West 2mph /  3.2km/h 3mph /  4.8km/h 81% 0.00in /  0mm 147 W/m2
06:40 44.4 °F /  6.9 °C 38.6 °F /  3.7 °C 30.14in /  1020.5hPa West 2mph /  3.2km/h 4mph /  6.4km/h 80% 0.00in /  0mm 154 W/m2
06:50 45.5 °F /  7.5 °C 39.4 °F /  4.1 °C 30.14in /  1020.5hPa NW 1mph /  1.6km/h 3mph /  4.8km/h 79% 0.00in /  0mm 182 W/m2
07:00 46.8 °F /  8.2 °C 40.3 °F /  4.6 °C 30.14in /  1020.5hPa Calm   3mph /  4.8km/h 78% 0.00in /  0mm 215 W/m2
07:10 47.8 °F /  8.8 °C 41.6 °F /  5.3 °C 30.14in /  1020.5hPa Calm   4mph /  6.4km/h 79% 0.00in /  0mm 269 W/m2
07:20 49.1 °F /  9.5 °C 42.2 °F /  5.7 °C 30.14in /  1020.5hPa Calm   2mph /  3.2km/h 77% 0.00in /  0mm 300 W/m2
07:30 50.4 °F /  10.2 °C 42.7 °F /  5.9 °C 30.13in /  1020.2hPa West 1mph /  1.6km/h 3mph /  4.8km/h 75% 0.00in /  0mm 331 W/m2
07:40 51.8 °F /  11 °C 43.4 °F /  6.3 °C 30.13in /  1020.2hPa NW 2mph /  3.2km/h 4mph /  6.4km/h 73% 0.00in /  0mm 366 W/m2
07:50 53.4 °F /  11.9 °C 44.6 °F /  7 °C 30.13in /  1020.2hPa WNW 1mph /  1.6km/h 2mph /  3.2km/h 72% 0.00in /  0mm 396 W/m2
08:00 55.1 °F /  12.8 °C 45.1 °F /  7.3 °C 30.12in /  1019.9hPa Calm   2mph /  3.2km/h 69% 0.00in /  0mm 429 W/m2
08:10 56.9 °F /  13.8 °C 46 °F /  7.8 °C 30.12in /  1019.9hPa North 2mph /  3.2km/h 5mph /  8km/h 67% 0.00in /  0mm 466 W/m2
08:20 59.9 °F /  15.5 °C 47.7 °F /  8.7 °C 30.12in /  1019.9hPa SE 3mph /  4.8km/h 6mph /  9.7km/h 64% 0.00in /  0mm 504 W/m2
08:30 63.3 °F /  17.4 °C 48.3 °F /  9.1 °C 30.11in /  1019.5hPa Calm   7mph /  11.3km/h 58% 0.00in /  0mm 540 W/m2
08:40 65.9 °F /  18.8 °C 49.2 °F /  9.6 °C 30.11in /  1019.5hPa SSE 2mph /  3.2km/h 5mph /  8km/h 55% 0.00in /  0mm 573 W/m2
08:50 67.8 °F /  19.9 °C 50.1 °F /  10.1 °C 30.11in /  1019.5hPa SE 2mph /  3.2km/h 5mph /  8km/h 53% 0.00in /  0mm 603 W/m2
09:00 69.6 °F /  20.9 °C 51.2 °F /  10.7 °C 30.11in /  1019.5hPa Calm   6mph /  9.7km/h 52% 0.00in /  0mm 635 W/m2
09:10 71.4 °F /  21.9 °C 51.3 °F /  10.7 °C 30.11in /  1019.5hPa SSE 2mph /  3.2km/h 6mph /  9.7km/h 49% 0.00in /  0mm 662 W/m2
09:20 72.9 °F /  22.7 °C 52.6 °F /  11.4 °C 30.11in /  1019.5hPa SE 2mph /  3.2km/h 7mph /  11.3km/h 49% 0.00in /  0mm 695 W/m2
09:30 74.1 °F /  23.4 °C 52.6 °F /  11.4 °C 30.10in /  1019.2hPa ESE 3mph /  4.8km/h 8mph /  12.9km/h 47% 0.00in /  0mm 729 W/m2
09:40 75.7 °F /  24.3 °C 52.9 °F /  11.6 °C 30.10in /  1019.2hPa SSE 2mph /  3.2km/h 5mph /  8km/h 45% 0.00in /  0mm 748 W/m2
09:50 76.8 °F /  24.9 °C 50.7 °F /  10.4 °C 30.10in /  1019.2hPa SW 3mph /  4.8km/h 9mph /  14.5km/h 40% 0.00in /  0mm 731 W/m2
10:00 77.4 °F /  25.2 °C 49.8 °F /  9.9 °C 30.10in /  1019.2hPa SW 8mph /  12.9km/h 12mph /  19.3km/h 38% 0.00in /  0mm 795 W/m2
10:10 77.9 °F /  25.5 °C 50.2 °F /  10.1 °C 30.09in /  1018.8hPa SW 6mph /  9.7km/h 12mph /  19.3km/h 38% 0.00in /  0mm 815 W/m2
10:20 78.6 °F /  25.9 °C 50.2 °F /  10.1 °C 30.09in /  1018.8hPa SW 7mph /  11.3km/h 12mph /  19.3km/h 37% 0.00in /  0mm 839 W/m2
10:30 79.4 °F /  26.3 °C 51.5 °F /  10.8 °C 30.09in /  1018.8hPa SW 5mph /  8km/h 10mph /  16.1km/h 38% 0.00in /  0mm 845 W/m2
10:40 80.2 °F /  26.8 °C 51.6 °F /  10.9 °C 30.09in /  1018.8hPa SW 5mph /  8km/h 8mph /  12.9km/h 37% 0.00in /  0mm 317 W/m2
10:50 80.8 °F /  27.1 °C 52.8 °F /  11.6 °C 30.09in /  1018.8hPa SW 2mph /  3.2km/h 7mph /  11.3km/h 38% 0.00in /  0mm 883 W/m2
11:00 81.7 °F /  27.6 °C 53.6 °F /  12 °C 30.09in /  1018.8hPa SSW 3mph /  4.8km/h 7mph /  11.3km/h 38% 0.00in /  0mm 892 W/m2
11:10 82 °F /  27.8 °C 53.2 °F /  11.8 °C 30.08in /  1018.5hPa SSE 3mph /  4.8km/h 9mph /  14.5km/h 37% 0.00in /  0mm 196 W/m2
11:20 82.8 °F /  28.2 °C 55.3 °F /  12.9 °C 30.07in /  1018.2hPa South 5mph /  8km/h 8mph /  12.9km/h 39% 0.00in /  0mm 889 W/m2
11:30 83.1 °F /  28.4 °C 55.6 °F /  13.1 °C 30.07in /  1018.2hPa SW 1mph /  1.6km/h 7mph /  11.3km/h 39% 0.00in /  0mm 726 W/m2
11:40 83.8 °F /  28.8 °C 55.5 °F /  13.1 °C 30.06in /  1017.8hPa SW 6mph /  9.7km/h 12mph /  19.3km/h 38% 0.00in /  0mm 532 W/m2
11:50 84 °F /  28.9 °C 54.9 °F /  12.7 °C 30.06in /  1017.8hPa South 3mph /  4.8km/h 12mph /  19.3km/h 37% 0.00in /  0mm 947 W/m2
12:00 84.6 °F /  29.2 °C 55.4 °F /  13 °C 30.06in /  1017.8hPa SSW 6mph /  9.7km/h 12mph /  19.3km/h 37% 0.00in /  0mm 921 W/m2
12:10 84.9 °F /  29.4 °C 54.2 °F /  12.3 °C 30.06in /  1017.8hPa SW 6mph /  9.7km/h 9mph /  14.5km/h 35% 0.00in /  0mm 929 W/m2
12:20 85.1 °F /  29.5 °C 55.9 °F /  13.3 °C 30.06in /  1017.8hPa SSW 3mph /  4.8km/h 9mph /  14.5km/h 37% 0.00in /  0mm 957 W/m2
12:30 85.6 °F /  29.8 °C 54.8 °F /  12.7 °C 30.05in /  1017.5hPa SW 3mph /  4.8km/h 8mph /  12.9km/h 35% 0.00in /  0mm 957 W/m2
12:40 86.2 °F /  30.1 °C 55.3 °F /  12.9 °C 30.05in /  1017.5hPa West 6mph /  9.7km/h 12mph /  19.3km/h 35% 0.00in /  0mm 511 W/m2
12:50 86.7 °F /  30.4 °C 55.8 °F /  13.2 °C 30.05in /  1017.5hPa West 5mph /  8km/h 9mph /  14.5km/h 35% 0.00in /  0mm 706 W/m2
13:00 87.3 °F /  30.7 °C 56.3 °F /  13.5 °C 30.05in /  1017.5hPa West 5mph /  8km/h 9mph /  14.5km/h 35% 0.00in /  0mm 337 W/m2
13:10 87.5 °F /  30.8 °C 57.2 °F /  14 °C 30.04in /  1017.2hPa West 2mph /  3.2km/h 9mph /  14.5km/h 36% 0.00in /  0mm 941 W/m2
13:20 87.6 °F /  30.9 °C 56.6 °F /  13.7 °C 30.04in /  1017.2hPa WSW 3mph /  4.8km/h 8mph /  12.9km/h 35% 0.00in /  0mm 933 W/m2
13:30 88 °F /  31.1 °C 56.9 °F /  13.8 °C 30.04in /  1017.2hPa West 3mph /  4.8km/h 9mph /  14.5km/h 35% 0.00in /  0mm 924 W/m2
13:40 87.6 °F /  30.9 °C 56.6 °F /  13.7 °C 30.04in /  1017.2hPa WSW 6mph /  9.7km/h 12mph /  19.3km/h 35% 0.00in /  0mm 914 W/m2
13:50 87.8 °F /  31 °C 56.7 °F /  13.7 °C 30.03in /  1016.8hPa WSW 6mph /  9.7km/h 11mph /  17.7km/h 35% 0.00in /  0mm 902 W/m2
14:00 88.4 °F /  31.3 °C 58.8 °F /  14.9 °C 30.03in /  1016.8hPa WSW 3mph /  4.8km/h 11mph /  17.7km/h 37% 0.00in /  0mm 888 W/m2
14:10 88.7 °F /  31.5 °C 59.1 °F /  15.1 °C 30.02in /  1016.5hPa West 6mph /  9.7km/h 14mph /  22.5km/h 37% 0.00in /  0mm 873 W/m2
14:20 88.9 °F /  31.6 °C 59.2 °F /  15.1 °C 30.02in /  1016.5hPa SW 2mph /  3.2km/h 10mph /  16.1km/h 37% 0.00in /  0mm 857 W/m2
14:30 89.2 °F /  31.8 °C 59.6 °F /  15.3 °C 30.02in /  1016.5hPa WSW 5mph /  8km/h 12mph /  19.3km/h 37% 0.00in /  0mm 839 W/m2
14:40 89.2 °F /  31.8 °C 58 °F /  14.4 °C 30.02in /  1016.5hPa WNW 7mph /  11.3km/h 12mph /  19.3km/h 35% 0.00in /  0mm 820 W/m2
14:50 89.1 °F /  31.7 °C 57.8 °F /  14.3 °C 30.01in /  1016.1hPa West 3mph /  4.8km/h 12mph /  19.3km/h 35% 0.00in /  0mm 800 W/m2
15:00 89.1 °F /  31.7 °C 59.4 °F /  15.2 °C 30.01in /  1016.1hPa West 3mph /  4.8km/h 11mph /  17.7km/h 37% 0.00in /  0mm 762 W/m2
15:10 89.2 °F /  31.8 °C 58 °F /  14.4 °C 30.01in /  1016.1hPa West 6mph /  9.7km/h 12mph /  19.3km/h 35% 0.00in /  0mm 757 W/m2
15:20 89.2 °F /  31.8 °C 58 °F /  14.4 °C 30.01in /  1016.1hPa West 7mph /  11.3km/h 14mph /  22.5km/h 35% 0.00in /  0mm 726 W/m2
15:30 89.1 °F /  31.7 °C 59.4 °F /  15.2 °C 30.01in /  1016.1hPa West 8mph /  12.9km/h 13mph /  20.9km/h 37% 0.00in /  0mm 695 W/m2
15:40 88.9 °F /  31.6 °C 59.2 °F /  15.1 °C 30.01in /  1016.1hPa West 10mph /  16.1km/h 15mph /  24.1km/h 37% 0.00in /  0mm 668 W/m2
15:50 88.7 °F /  31.5 °C 59.1 °F /  15.1 °C 30.00in /  1015.8hPa West 7mph /  11.3km/h 15mph /  24.1km/h 37% 0.00in /  0mm 639 W/m2
16:00 88.5 °F /  31.4 °C 59.7 °F /  15.4 °C 30.00in /  1015.8hPa WSW 7mph /  11.3km/h 15mph /  24.1km/h 38% 0.00in /  0mm 613 W/m2
16:10 88.5 °F /  31.4 °C 59.6 °F /  15.3 °C 30.00in /  1015.8hPa SW 8mph /  12.9km/h 13mph /  20.9km/h 38% 0.00in /  0mm 575 W/m2
16:20 88.3 °F /  31.3 °C 59.5 °F /  15.3 °C 30.00in /  1015.8hPa WSW 7mph /  11.3km/h 14mph /  22.5km/h 38% 0.00in /  0mm 553 W/m2
16:30 88.5 °F /  31.4 °C 60.4 °F /  15.8 °C 30.00in /  1015.8hPa WSW 6mph /  9.7km/h 12mph /  19.3km/h 39% 0.00in /  0mm 520 W/m2
16:40 88.3 °F /  31.3 °C 59.5 °F /  15.3 °C 29.99in /  1015.5hPa West 5mph /  8km/h 11mph /  17.7km/h 38% 0.00in /  0mm 486 W/m2
16:50 88.3 °F /  31.3 °C 60.2 °F /  15.7 °C 29.99in /  1015.5hPa West 7mph /  11.3km/h 13mph /  20.9km/h 39% 0.00in /  0mm 451 W/m2
17:00 88.3 °F /  31.3 °C 60.2 °F /  15.7 °C 29.99in /  1015.5hPa West 5mph /  8km/h 13mph /  20.9km/h 39% 0.00in /  0mm 417 W/m2
17:10 88.2 °F /  31.2 °C 60.1 °F /  15.6 °C 29.99in /  1015.5hPa West 6mph /  9.7km/h 13mph /  20.9km/h 39% 0.00in /  0mm 384 W/m2
17:20 87.8 °F /  31 °C 60.5 °F /  15.8 °C 29.99in /  1015.5hPa WSW 7mph /  11.3km/h 16mph /  25.7km/h 40% 0.00in /  0mm 349 W/m2
17:30 87.4 °F /  30.8 °C 59.4 °F /  15.2 °C 29.99in /  1015.5hPa West 7mph /  11.3km/h 17mph /  27.4km/h 39% 0.00in /  0mm 317 W/m2
17:40 87.4 °F /  30.8 °C 60.2 °F /  15.7 °C 29.99in /  1015.5hPa NNW 6mph /  9.7km/h 10mph /  16.1km/h 40% 0.00in /  0mm 283 W/m2
17:50 87.1 °F /  30.6 °C 61.2 °F /  16.2 °C 29.99in /  1015.5hPa West 2mph /  3.2km/h 13mph /  20.9km/h 42% 0.00in /  0mm 252 W/m2
18:00 86.9 °F /  30.5 °C 61 °F /  16.1 °C 29.99in /  1015.5hPa West 5mph /  8km/h 9mph /  14.5km/h 42% 0.00in /  0mm 224 W/m2
18:10 87 °F /  30.6 °C 61.8 °F /  16.6 °C 29.99in /  1015.5hPa WNW 3mph /  4.8km/h 8mph /  12.9km/h 43% 0.00in /  0mm 195 W/m2
18:20 86.4 °F /  30.2 °C 61.2 °F /  16.2 °C 29.99in /  1015.5hPa WNW 6mph /  9.7km/h 14mph /  22.5km/h 43% 0.00in /  0mm 169 W/m2
18:30 85.6 °F /  29.8 °C 60.6 °F /  15.9 °C 29.99in /  1015.5hPa West 5mph /  8km/h 11mph /  17.7km/h 43% 0.00in /  0mm 135 W/m2
18:40 85.1 °F /  29.5 °C 60.7 °F /  15.9 °C 29.99in /  1015.5hPa West 6mph /  9.7km/h 12mph /  19.3km/h 44% 0.00in /  0mm 120 W/m2
18:50 84.7 °F /  29.3 °C 60.4 °F /  15.8 °C 29.99in /  1015.5hPa West 5mph /  8km/h 9mph /  14.5km/h 44% 0.00in /  0mm 100 W/m2
19:00 84.4 °F /  29.1 °C 60.7 °F /  15.9 °C 29.99in /  1015.5hPa WNW 3mph /  4.8km/h 9mph /  14.5km/h 45% 0.00in /  0mm 65 W/m2
19:10 83.8 °F /  28.8 °C 61.5 °F /  16.4 °C 29.99in /  1015.5hPa West 2mph /  3.2km/h 6mph /  9.7km/h 47% 0.00in /  0mm 39 W/m2
19:20 83.1 °F /  28.4 °C 61.3 °F /  16.3 °C 29.99in /  1015.5hPa West 2mph /  3.2km/h 5mph /  8km/h 48% 0.00in /  0mm 24 W/m2
19:30 82.2 °F /  27.9 °C 61.2 °F /  16.2 °C 29.99in /  1015.5hPa West 1mph /  1.6km/h 3mph /  4.8km/h 49% 0.00in /  0mm 17 W/m2
19:40 81.3 °F /  27.4 °C 60.9 °F /  16.1 °C 29.99in /  1015.5hPa West 1mph /  1.6km/h 3mph /  4.8km/h 50% 0.00in /  0mm 11 W/m2
19:50 80.4 °F /  26.9 °C 60.6 °F /  15.9 °C 29.99in /  1015.5hPa WSW 2mph /  3.2km/h 4mph /  6.4km/h 51% 0.00in /  0mm 4 W/m2
20:00 79.5 °F /  26.4 °C 60.8 °F /  16 °C 29.99in /  1015.5hPa West 2mph /  3.2km/h 5mph /  8km/h 53% 0.00in /  0mm 0 W/m2
20:10 78.8 °F /  26 °C 60.7 °F /  15.9 °C 29.99in /  1015.5hPa WNW 5mph /  8km/h 7mph /  11.3km/h 54% 0.00in /  0mm 0 W/m2
20:30 77.7 °F /  25.4 °C 60.3 °F /  15.7 °C 30.00in /  1015.8hPa West 2mph /  3.2km/h 5mph /  8km/h 55% 0.00in /  0mm 0 W/m2
20:40 77.1 °F /  25.1 °C 60.2 °F /  15.7 °C 30.00in /  1015.8hPa NW 1mph /  1.6km/h 5mph /  8km/h 56% 0.00in /  0mm 0 W/m2
Knjazevac, Serbia
Compliments of Weather Underground - 2 mb